Time;durP1;ratioP1;P1;durP2;ratioP2;P2;SDS_P1;SDS_P2;PMS_P1;PMS_P2;Temp;Humidity;BMP_temperature;BMP_pressure;BME280_temperature;BME280_humidity;BME280_pressure;Samples;Min_cycle;Max_cycle;Signal;HPM_P1;HPM_P2
2022/09/17 00:01:53;;;;;;;8.45;1.10;;;;;;;12.54;100.00;101227.25;2615077;36;20038;-49
2022/09/17 00:04:24;;;;;;;4.32;1.10;;;;;;;12.56;100.00;101213.63;2615684;36;20467;-57
2022/09/17 00:06:52;;;;;;;9.32;1.55;;;;;;;12.52;100.00;101223.00;2616472;36;20033;-55
2022/09/17 00:09:24;;;;;;;8.48;1.67;;;;;;;12.50;100.00;101220.44;2615219;47;20477;-50
2022/09/17 00:11:52;;;;;;;9.40;1.35;;;;;;;12.43;100.00;101227.38;2614892;36;20496;-54
2022/09/17 00:14:20;;;;;;;7.80;1.50;;;;;;;12.45;100.00;101225.38;2614339;36;20066;-50
2022/09/17 00:16:50;;;;;;;6.10;1.10;;;;;;;12.58;100.00;101230.53;2613741;31;20674;-51
2022/09/17 00:19:21;;;;;;;6.70;1.20;;;;;;;12.72;100.00;101235.53;2632525;36;20042;-49
2022/09/17 00:21:53;;;;;;;7.35;1.10;;;;;;;12.56;100.00;101233.38;2605960;36;20221;-51
2022/09/17 00:24:22;;;;;;;8.18;1.58;;;;;;;12.56;100.00;101222.56;2612909;36;20030;-47
2022/09/17 00:26:50;;;;;;;4.82;1.10;;;;;;;12.60;100.00;101212.34;2614693;36;20034;-52
2022/09/17 00:29:19;;;;;;;3.92;0.90;;;;;;;12.54;100.00;101234.50;2615039;36;20038;-50
2022/09/17 00:31:47;;;;;;;10.35;1.63;;;;;;;12.62;100.00;101230.09;2615324;36;20034;-50
2022/09/17 00:34:16;;;;;;;6.13;1.38;;;;;;;12.68;100.00;101239.50;2613668;36;20030;-52
2022/09/17 00:36:44;;;;;;;5.97;1.10;;;;;;;12.68;100.00;101244.06;2631041;36;20481;-48
2022/09/17 00:39:15;;;;;;;10.80;1.23;;;;;;;12.66;100.00;101262.22;2614950;36;20053;-48
2022/09/17 00:41:44;;;;;;;8.07;1.42;;;;;;;12.61;100.00;101255.41;2615143;36;20607;-52
2022/09/17 00:44:43;;;;;;;6.22;1.60;;;;;;;12.54;100.00;101248.00;2615234;36;20065;-48
2022/09/17 00:47:17;;;;;;;3.80;1.20;;;;;;;12.27;100.00;101226.06;2616195;36;20045;-50
2022/09/17 00:49:46;;;;;;;6.28;1.25;;;;;;;12.32;100.00;101241.00;2615125;36;20049;-48
2022/09/17 00:52:15;;;;;;;;;;;;;;;12.35;100.00;101229.91;2615664;36;20038;-49
2022/09/17 00:54:51;;;;;;;;;;;;;;;12.34;100.00;101239.88;2615055;31;19946;-49
2022/09/17 00:57:19;;;;;;;6.57;1.50;;;;;;;12.30;100.00;101257.31;2613699;36;19938;-50
2022/09/17 00:59:48;;;;;;;9.45;1.50;;;;;;;12.30;100.00;101251.94;2615462;36;20643;-52
2022/09/17 01:02:17;;;;;;;5.47;1.30;;;;;;;12.36;100.00;101245.97;2615491;36;20030;-49
2022/09/17 01:04:45;;;;;;;3.47;0.93;;;;;;;12.42;100.00;101258.91;2614772;36;20057;-49
2022/09/17 01:07:21;;;;;;;5.30;1.05;;;;;;;12.23;100.00;101251.63;2614507;36;20504;-50
2022/09/17 01:10:00;;;;;;;7.88;1.35;;;;;;;12.10;100.00;101251.00;2614602;36;20027;-51
2022/09/17 01:12:46;;;;;;;6.13;1.17;;;;;;;12.18;100.00;101244.94;2615014;36;20057;-50
2022/09/17 01:15:25;;;;;;;7.07;1.27;;;;;;;12.20;100.00;101246.50;2613459;36;20585;-49
2022/09/17 01:18:08;;;;;;;5.93;1.00;;;;;;;12.16;100.00;101249.59;2614457;36;20019;-47
2022/09/17 01:21:13;;;;;;;2.78;0.90;;;;;;;12.16;100.00;101242.38;2614646;36;20026;-49
2022/09/17 01:24:03;;;;;;;6.05;1.15;;;;;;;12.06;100.00;101241.50;2614306;36;20566;-47
2022/09/17 01:26:56;;;;;;;5.20;0.90;;;;;;;12.07;100.00;101243.19;2616048;36;20034;-50
2022/09/17 01:29:38;;;;;;;6.47;0.80;;;;;;;12.07;100.00;101241.34;2615220;36;20022;-49
2022/09/17 01:32:14;;;;;;;8.43;1.20;;;;;;;11.95;100.00;101252.38;2615094;31;20053;-47
2022/09/17 01:34:51;;;;;;;6.80;1.40;;;;;;;12.15;100.00;101250.63;2615173;31;20049;-48
2022/09/17 01:37:31;;;;;;;8.75;1.60;;;;;;;12.25;100.00;101246.09;2614306;36;20061;-49
2022/09/17 01:40:06;;;;;;;6.25;1.15;;;;;;;12.21;100.00;101248.22;2614545;36;20038;-46
2022/09/17 01:42:42;;;;;;;3.85;0.70;;;;;;;12.24;100.00;101242.53;2616143;36;20042;-48
2022/09/17 01:45:17;;;;;;;4.65;0.80;;;;;;;12.14;100.00;101244.34;2615372;36;20030;-49
2022/09/17 01:47:53;;;;;;;5.80;1.10;;;;;;;12.12;100.00;101249.03;2616218;36;20053;-49
2022/09/17 01:50:27;;;;;;;6.05;1.20;;;;;;;11.99;100.00;101260.06;2615235;36;20035;-48
2022/09/17 01:52:57;;;;;;;4.00;0.73;;;;;;;12.03;100.00;101263.34;2615261;36;20030;-46
2022/09/17 01:55:39;;;;;;;6.35;0.80;;;;;;;12.18;100.00;101269.22;2614075;36;20046;-47
2022/09/17 01:58:13;;;;;;;4.97;1.20;;;;;;;12.20;100.00;101267.22;2614793;36;20037;-48
2022/09/17 02:00:46;;;;;;;4.43;1.00;;;;;;;12.33;100.00;101280.50;2615411;36;20031;-46
2022/09/17 02:03:21;;;;;;;6.28;1.25;;;;;;;12.42;100.00;101271.56;2615923;36;20435;-51
2022/09/17 02:05:54;;;;;;;2.78;0.80;;;;;;;12.49;100.00;101270.03;2615317;31;20038;-49
2022/09/17 02:08:25;;;;;;;7.50;1.30;;;;;;;12.43;100.00;101266.03;2615517;36;20031;-47
2022/09/17 02:10:57;;;;;;;5.57;1.52;;;;;;;12.37;100.00;101258.47;2615253;36;20293;-47
2022/09/17 02:13:30;;;;;;;6.47;1.38;;;;;;;12.29;100.00;101265.56;2614439;36;20547;-49
2022/09/17 02:16:04;;;;;;;5.75;1.08;;;;;;;12.30;100.00;101260.03;2614546;36;20038;-48
2022/09/17 02:18:41;;;;;;;5.53;1.48;;;;;;;12.21;100.00;101267.09;2615752;36;20026;-46
2022/09/17 02:21:18;;;;;;;6.80;1.73;;;;;;;12.08;100.00;101274.56;2616059;54;20057;-47
2022/09/17 02:23:54;;;;;;;7.57;1.20;;;;;;;12.11;100.00;101284.25;2615825;36;20039;-49
2022/09/17 02:26:25;;;;;;;4.57;1.00;;;;;;;12.25;100.00;101265.00;2614849;31;20022;-47
2022/09/17 02:28:58;;;;;;;7.05;1.20;;;;;;;12.21;100.00;101268.94;2614827;36;20564;-48
2022/09/17 02:31:26;;;;;;;6.22;1.33;;;;;;;12.15;100.00;101270.34;2615386;36;20535;-49
2022/09/17 02:34:03;;;;;;;7.82;0.95;;;;;;;12.19;100.00;101263.69;2614616;36;20054;-47
2022/09/17 02:36:33;;;;;;;8.57;1.00;;;;;;;12.08;100.00;101263.78;2615072;36;20119;-49
2022/09/17 02:39:04;;;;;;;6.82;1.10;;;;;;;12.00;100.00;101267.16;2614034;36;20042;-47
2022/09/17 02:41:42;;;;;;;7.53;1.23;;;;;;;11.97;100.00;101263.88;2615026;36;20041;-49
2022/09/17 02:44:23;;;;;;;4.22;1.00;;;;;;;11.98;100.00;101273.69;2614970;36;20034;-47
2022/09/17 02:47:08;;;;;;;8.75;1.05;;;;;;;11.92;100.00;101266.94;2614042;31;20054;-47
2022/09/17 02:49:55;;;;;;;6.22;1.00;;;;;;;12.14;100.00;101263.22;2614977;31;20030;-47
2022/09/17 02:52:35;;;;;;;3.88;0.93;;;;;;;12.09;100.00;101262.81;2614609;36;20081;-48
2022/09/17 02:55:14;;;;;;;9.57;1.25;;;;;;;12.25;100.00;101257.75;2614492;36;20046;-47
2022/09/17 02:57:47;;;;;;;10.90;1.10;;;;;;;12.24;100.00;101257.88;2615446;36;20416;-47
2022/09/17 03:00:20;;;;;;;5.07;1.25;;;;;;;12.20;100.00;101259.13;2614959;36;20081;-47
2022/09/17 03:02:52;;;;;;;3.58;0.70;;;;;;;12.21;100.00;101260.84;2615228;36;20447;-47
2022/09/17 03:05:25;;;;;;;9.48;1.00;;;;;;;12.19;100.00;101263.69;2614634;36;20051;-48
2022/09/17 03:07:55;;;;;;;5.53;0.88;;;;;;;12.22;100.00;101271.50;2614538;36;20034;-48
2022/09/17 03:10:29;;;;;;;6.43;0.88;;;;;;;12.35;100.00;101267.69;2614455;36;20046;-49
2022/09/17 03:12:57;;;;;;;7.30;0.98;;;;;;;12.25;100.00;101287.44;2615464;36;20543;-46
2022/09/17 03:15:25;;;;;;;5.65;1.30;;;;;;;12.25;100.00;101292.81;2615121;36;20027;-49
2022/09/17 03:17:53;;;;;;;6.00;1.10;;;;;;;12.35;100.00;101276.69;2615063;36;20538;-47
2022/09/17 03:20:24;;;;;;;4.90;1.00;;;;;;;12.37;100.00;101279.25;2615458;31;20393;-46
2022/09/17 03:22:53;;;;;;;8.07;1.30;;;;;;;12.32;100.00;101279.63;2615245;36;20664;-48
2022/09/17 03:25:21;;;;;;;6.55;1.00;;;;;;;11.99;100.00;101270.00;2615301;31;20059;-48
2022/09/17 03:27:51;;;;;;;5.77;1.00;;;;;;;12.08;100.00;101274.56;2614643;31;20078;-49
2022/09/17 03:30:19;;;;;;;5.22;1.10;;;;;;;12.16;100.00;101272.06;2614019;36;20870;-48
2022/09/17 03:32:48;;;;;;;8.00;1.10;;;;;;;12.03;100.00;101275.00;2615694;36;20030;-47
2022/09/17 03:35:16;;;;;;;3.13;0.90;;;;;;;11.96;100.00;101281.06;2613807;36;20038;-48
2022/09/17 03:37:47;;;;;;;4.57;1.37;;;;;;;11.91;100.00;101281.41;2614485;36;20061;-51
2022/09/17 03:40:16;;;;;;;7.25;1.00;;;;;;;12.01;100.00;101284.19;2615031;36;20447;-50
2022/09/17 03:42:44;;;;;;;9.57;1.45;;;;;;;11.93;100.00;101282.19;2615186;36;20049;-47
2022/09/17 03:45:13;;;;;;;5.32;1.52;;;;;;;11.85;100.00;101287.34;2615221;36;20042;-48
2022/09/17 03:47:41;;;;;;;7.53;1.10;;;;;;;11.87;100.00;101274.59;2615312;36;20054;-47
2022/09/17 03:50:10;;;;;;;4.75;1.15;;;;;;;11.93;100.00;101276.78;2614194;36;20023;-49
2022/09/17 03:52:38;;;;;;;3.25;1.20;;;;;;;12.02;100.00;101280.53;2615447;36;20027;-46
2022/09/17 03:55:10;;;;;;;3.92;0.90;;;;;;;11.87;100.00;101280.00;2613931;36;20050;-49
2022/09/17 03:57:38;;;;;;;4.10;0.80;;;;;;;11.72;100.00;101279.50;2614083;36;20587;-48
2022/09/17 04:00:08;;;;;;;3.58;1.20;;;;;;;11.77;100.00;101276.41;2615194;31;20025;-50
2022/09/17 04:02:37;;;;;;;7.30;1.25;;;;;;;11.72;100.00;101284.88;2615262;36;20146;-47
2022/09/17 04:05:06;;;;;;;3.58;2.00;;;;;;;11.64;100.00;101274.75;2615377;36;20041;-46
2022/09/17 04:07:34;;;;;;;8.95;1.40;;;;;;;11.43;100.00;101280.16;2616162;36;20037;-47
2022/09/17 04:10:04;;;;;;;9.25;2.05;;;;;;;11.40;100.00;101283.13;2615454;36;20040;-45
2022/09/17 04:12:35;;;;;;;5.68;0.82;;;;;;;11.32;100.00;101283.78;2615273;36;20134;-45
2022/09/17 04:15:03;;;;;;;3.78;0.80;;;;;;;11.27;100.00;101288.69;2614765;36;20527;-47
2022/09/17 04:17:31;;;;;;;3.85;1.27;;;;;;;11.25;100.00;101281.72;2615746;36;20038;-46
2022/09/17 04:20:00;;;;;;;4.13;0.75;;;;;;;11.40;100.00;101285.81;2614654;31;20428;-48
2022/09/17 04:22:28;;;;;;;6.15;1.05;;;;;;;11.50;100.00;101294.81;2614593;36;20035;-48
2022/09/17 04:24:57;;;;;;;5.07;0.80;;;;;;;11.58;100.00;101286.06;2615653;36;20034;-49
2022/09/17 04:27:25;;;;;;;5.22;1.00;;;;;;;11.64;100.00;101279.28;2614889;36;20050;-49
2022/09/17 04:29:56;;;;;;;4.93;0.80;;;;;;;11.78;100.00;101284.34;2613527;36;20057;-48
2022/09/17 04:32:24;;;;;;;4.57;0.85;;;;;;;11.67;100.00;101274.47;2615446;36;20042;-46
2022/09/17 04:34:53;;;;;;;5.32;1.15;;;;;;;11.70;100.00;101276.94;2613624;36;20039;-48
2022/09/17 04:37:22;;;;;;;2.63;0.50;;;;;;;11.60;100.00;101277.84;2615239;31;20645;-48
2022/09/17 04:39:50;;;;;;;2.05;0.77;;;;;;;11.62;100.00;101283.97;2613656;36;20042;-48
2022/09/17 04:42:22;;;;;;;6.20;1.05;;;;;;;11.57;100.00;101287.03;2614531;36;20034;-48
2022/09/17 04:44:50;;;;;;;9.02;0.88;;;;;;;11.47;100.00;101281.59;2612997;36;20050;-49
2022/09/17 04:47:21;;;;;;;4.03;0.87;;;;;;;11.39;100.00;101284.97;2615312;36;20042;-51
2022/09/17 04:49:49;;;;;;;5.57;1.00;;;;;;;11.39;100.00;101290.34;2615513;36;20594;-48
2022/09/17 04:52:18;;;;;;;6.47;1.00;;;;;;;11.29;100.00;101286.72;2615449;36;20030;-47
2022/09/17 04:54:47;;;;;;;10.32;1.13;;;;;;;11.36;100.00;101289.75;2613666;31;20043;-47
2022/09/17 04:57:15;;;;;;;3.30;0.70;;;;;;;11.42;100.00;101291.06;2615489;36;20030;-50
2022/09/17 04:59:43;;;;;;;3.20;0.83;;;;;;;11.39;100.00;101294.88;2615888;36;20419;-48
2022/09/17 05:02:11;;;;;;;6.50;1.10;;;;;;;11.33;100.00;101290.00;2614367;36;20037;-49
2022/09/17 05:04:42;;;;;;;4.40;0.75;;;;;;;11.37;100.00;101296.84;2615096;36;20041;-47
2022/09/17 05:07:11;;;;;;;4.20;0.88;;;;;;;11.36;100.00;101289.75;2616540;36;20436;-50
2022/09/17 05:09:39;;;;;;;5.63;1.10;;;;;;;11.47;100.00;101287.00;2614421;36;20037;-47
2022/09/17 05:12:08;;;;;;;3.38;0.68;;;;;;;11.50;100.00;101294.81;2615416;31;20034;-49
2022/09/17 05:14:36;;;;;;;5.38;1.15;;;;;;;11.50;100.00;101305.59;2614773;36;20030;-47
2022/09/17 05:17:04;;;;;;;2.17;0.93;;;;;;;11.53;100.00;101308.03;2616379;36;20034;-48
2022/09/17 05:19:32;;;;;;;5.47;0.80;;;;;;;11.68;100.00;101321.19;2614481;36;20030;-47
2022/09/17 05:22:03;;;;;;;8.13;1.02;;;;;;;11.82;100.00;101326.25;2614710;36;20026;-49
2022/09/17 05:24:32;;;;;;;4.55;0.95;;;;;;;11.96;100.00;101321.53;2615093;36;20432;-48
2022/09/17 05:27:00;;;;;;;4.75;1.08;;;;;;;11.84;100.00;101316.16;2616310;36;20412;-47
2022/09/17 05:29:29;;;;;;;3.35;0.88;;;;;;;11.73;100.00;101325.19;2615744;31;20031;-46
2022/09/17 05:31:57;;;;;;;3.97;0.80;;;;;;;11.80;100.00;101324.66;2614925;36;20030;-47
2022/09/17 05:34:25;;;;;;;4.63;1.20;;;;;;;11.61;100.00;101330.78;2614753;36;20022;-47
2022/09/17 05:36:54;;;;;;;4.40;0.70;;;;;;;11.58;100.00;101327.34;2615654;36;20065;-48
2022/09/17 05:39:25;;;;;;;6.43;0.95;;;;;;;11.67;100.00;101331.09;2614444;36;20042;-47
2022/09/17 05:41:53;;;;;;;3.92;1.15;;;;;;;11.73;100.00;101319.81;2615897;36;20085;-46
2022/09/17 05:44:22;;;;;;;4.70;0.75;;;;;;;11.74;100.00;101331.44;2615046;36;20030;-47
2022/09/17 05:46:50;;;;;;;3.38;0.80;;;;;;;11.69;100.00;101330.97;2615947;36;20567;-47
2022/09/17 05:49:19;;;;;;;4.20;0.77;;;;;;;11.73;100.00;101330.59;2614921;36;20035;-47
2022/09/17 05:51:47;;;;;;;2.65;0.80;;;;;;;11.61;100.00;101331.63;2615602;36;20027;-50
2022/09/17 05:54:15;;;;;;;3.53;0.80;;;;;;;11.57;100.00;101317.56;2614789;31;20542;-49
2022/09/17 05:56:46;;;;;;;3.42;0.70;;;;;;;11.53;100.00;101323.38;2613903;36;20435;-46
2022/09/17 05:59:14;;;;;;;2.85;0.70;;;;;;;11.47;100.00;101315.78;2614363;36;20077;-47
2022/09/17 06:01:43;;;;;;;4.00;0.80;;;;;;;11.34;100.00;101324.06;2615269;36;20034;-46
2022/09/17 06:04:11;;;;;;;3.28;0.65;;;;;;;11.47;100.00;101318.47;2614384;36;20038;-49
2022/09/17 06:06:40;;;;;;;4.15;1.42;;;;;;;11.46;100.00;101327.56;2615819;36;20089;-47
2022/09/17 06:09:09;;;;;;;3.55;0.57;;;;;;;11.46;100.00;101333.81;2613533;36;20038;-48
2022/09/17 06:11:38;;;;;;;1.73;0.90;;;;;;;11.57;100.00;101344.53;2615066;36;20046;-49
2022/09/17 06:14:10;;;;;;;2.45;0.80;;;;;;;11.54;100.00;101344.78;2614367;36;20556;-53
2022/09/17 06:16:39;;;;;;;5.15;0.70;;;;;;;11.58;100.00;101340.81;2615826;36;20039;-49
2022/09/17 06:19:07;;;;;;;3.17;0.65;;;;;;;11.68;100.00;101345.47;2613515;31;20571;-49
2022/09/17 06:21:35;;;;;;;7.35;0.90;;;;;;;11.67;100.00;101346.44;2615973;36;20026;-48
2022/09/17 06:24:07;;;;;;;3.35;0.60;;;;;;;11.65;100.00;101343.88;2614507;36;20551;-48
2022/09/17 06:26:35;;;;;;;5.50;1.17;;;;;;;11.68;100.00;101361.63;2614440;36;20108;-48
2022/09/17 06:29:04;;;;;;;5.30;1.35;;;;;;;11.66;100.00;101359.06;2614605;36;20022;-50
2022/09/17 06:31:35;;;;;;;9.27;1.30;;;;;;;11.69;100.00;101349.84;2614487;36;20039;-48
2022/09/17 06:34:04;;;;;;;5.03;1.00;;;;;;;11.76;100.00;101345.63;2614036;36;20037;-49
2022/09/17 06:36:32;;;;;;;;;;;;;;;11.82;100.00;101346.94;2615671;36;20117;-49
2022/09/17 06:39:00;;;;;;;6.25;0.90;;;;;;;11.86;100.00;101360.03;2615134;36;19950;-48
2022/09/17 06:41:29;;;;;;;4.25;1.75;;;;;;;11.80;100.00;101357.88;2614557;36;20094;-48
2022/09/17 06:43:57;;;;;;;6.13;1.00;;;;;;;11.76;100.00;101356.41;2615475;36;20058;-47
2022/09/17 06:46:26;;;;;;;7.18;1.55;;;;;;;11.86;100.00;101357.34;2615060;36;20423;-48
2022/09/17 06:48:57;;;;;;;5.63;0.88;;;;;;;11.96;100.00;101362.00;2616146;36;20440;-50
2022/09/17 06:51:25;;;;;;;3.70;1.00;;;;;;;11.97;100.00;101363.69;2614826;36;20543;-47
2022/09/17 06:53:53;;;;;;;4.72;0.90;;;;;;;11.91;100.00;101357.81;2615048;36;20060;-47
2022/09/17 06:56:21;;;;;;;4.15;0.80;;;;;;;11.92;100.00;101362.22;2613074;36;20030;-48
2022/09/17 06:58:50;;;;;;;3.25;0.95;;;;;;;11.81;100.00;101365.00;2613597;31;20110;-47
2022/09/17 07:01:18;;;;;;;2.85;0.90;;;;;;;11.86;100.00;101369.97;2611982;36;20034;-49
2022/09/17 07:03:48;;;;;;;6.53;1.02;;;;;;;11.98;100.00;101378.88;2614071;36;20034;-48
2022/09/17 07:06:19;;;;;;;5.60;0.70;;;;;;;12.08;100.00;101364.47;2615804;36;20414;-48
2022/09/17 07:08:48;;;;;;;7.30;0.75;;;;;;;12.21;100.00;101366.94;2615458;36;20149;-49
2022/09/17 07:11:17;;;;;;;3.20;0.70;;;;;;;12.27;100.00;101361.00;2614232;36;20057;-49
2022/09/17 07:13:45;;;;;;;2.20;1.17;;;;;;;12.27;100.00;101360.16;2615070;31;20146;-51
2022/09/17 07:16:14;;;;;;;6.25;1.60;;;;;;;12.33;100.00;101348.81;2613767;36;20420;-49
2022/09/17 07:18:42;;;;;;;5.18;0.90;;;;;;;12.31;100.00;101355.34;2614765;36;21062;-52
2022/09/17 07:21:11;;;;;;;3.43;0.50;;;;;;;12.45;100.00;101352.28;2614402;36;20611;-49
2022/09/17 07:23:42;;;;;;;6.30;1.02;;;;;;;12.63;100.00;101355.16;2614040;36;20037;-48
2022/09/17 07:26:15;;;;;;;6.93;1.08;;;;;;;12.86;100.00;101353.09;2614120;36;20436;-49
2022/09/17 07:28:45;;;;;;;3.08;0.60;;;;;;;13.00;100.00;101351.00;2614062;36;20044;-47
2022/09/17 07:31:14;;;;;;;7.82;0.80;;;;;;;13.25;100.00;101355.88;2614489;36;20508;-48
2022/09/17 07:33:43;;;;;;;4.65;0.77;;;;;;;13.23;100.00;101341.63;2614226;36;20061;-50
2022/09/17 07:36:16;;;;;;;6.53;0.80;;;;;;;13.38;100.00;101344.78;2613551;31;20045;-48
2022/09/17 07:38:47;;;;;;;3.03;0.90;;;;;;;13.54;100.00;101360.44;2614861;36;20045;-50
2022/09/17 07:41:17;;;;;;;5.68;1.13;;;;;;;13.76;100.00;101353.03;2614597;36;20574;-49
2022/09/17 07:43:46;;;;;;;5.50;0.80;;;;;;;14.14;100.00;101351.22;2614068;36;20061;-48
2022/09/17 07:46:17;;;;;;;7.13;1.17;;;;;;;14.40;100.00;101366.78;2614173;36;20039;-51
2022/09/17 07:48:46;;;;;;;3.38;0.82;;;;;;;14.37;100.00;101365.25;2615174;36;20417;-49
2022/09/17 07:51:18;;;;;;;1.63;0.80;;;;;;;14.35;100.00;101351.88;2615133;36;20082;-50
2022/09/17 07:53:49;;;;;;;4.95;1.50;;;;;;;14.22;100.00;101364.88;2613354;36;20052;-47
2022/09/17 07:56:17;;;;;;;2.20;0.82;;;;;;;14.03;100.00;101371.22;2611175;36;20022;-50
2022/09/17 07:58:46;;;;;;;3.70;0.83;;;;;;;14.23;100.00;101372.00;2613944;36;20030;-54
2022/09/17 08:01:16;;;;;;;4.93;0.80;;;;;;;14.35;100.00;101365.41;2614458;36;20031;-51
2022/09/17 08:03:49;;;;;;;5.38;0.98;;;;;;;14.57;100.00;101355.19;2613383;36;20090;-52
2022/09/17 08:06:20;;;;;;;2.28;0.75;;;;;;;14.49;100.00;101355.09;2614831;31;20023;-49
2022/09/17 08:08:51;;;;;;;0.98;0.60;;;;;;;14.76;100.00;101350.69;2614521;36;20042;-53
2022/09/17 08:11:21;;;;;;;4.13;0.70;;;;;;;14.64;100.00;101347.34;2614977;36;20037;-53
2022/09/17 08:13:50;;;;;;;3.85;0.93;;;;;;;14.64;100.00;101352.75;2614060;36;20550;-51
2022/09/17 08:16:19;;;;;;;3.13;0.70;;;;;;;14.58;100.00;101356.88;2614507;31;20046;-51
2022/09/17 08:18:48;;;;;;;;;;;;;;;14.81;100.00;101353.78;2614769;36;20038;-50
2022/09/17 08:21:19;;;;;;;2.83;1.10;;;;;;;14.93;100.00;101355.31;2615644;36;19977;-50
2022/09/17 08:23:47;;;;;;;5.85;0.85;;;;;;;15.21;100.00;101345.25;2615034;36;20421;-48
2022/09/17 08:26:21;;;;;;;7.63;0.83;;;;;;;15.14;100.00;101354.16;2612700;36;20042;-52
2022/09/17 08:28:53;;;;;;;4.88;0.88;;;;;;;15.20;100.00;101357.09;2615119;31;21136;-54
2022/09/17 08:31:23;;;;;;;5.05;0.65;;;;;;;15.00;100.00;101348.28;2615190;36;20023;-51
2022/09/17 08:33:52;;;;;;;1.67;0.40;;;;;;;14.87;100.00;101351.34;2613057;36;20065;-49
2022/09/17 08:36:21;;;;;;;4.60;0.80;;;;;;;15.01;100.00;101343.69;2615050;31;20057;-50
2022/09/17 08:38:53;;;;;;;2.17;0.70;;;;;;;15.21;100.00;101349.84;2611066;36;20042;-54
2022/09/17 08:41:37;;;;;;;3.47;0.65;;;;;;;15.31;100.00;101358.75;2613805;36;20568;-49
2022/09/17 08:44:20;;;;;;;5.47;1.00;;;;;;;15.51;100.00;101356.69;2615146;36;20069;-53
2022/09/17 08:46:51;;;;;;;5.68;0.95;;;;;;;15.70;100.00;101350.25;2615706;36;20031;-50
2022/09/17 08:49:31;;;;;;;4.70;0.88;;;;;;;15.80;100.00;101360.19;2614516;36;20077;-54
2022/09/17 08:52:18;;;;;;;3.60;1.00;;;;;;;15.73;100.00;101359.94;2615607;36;20035;-49
2022/09/17 08:54:55;;;;;;;3.20;0.68;;;;;;;15.69;100.00;101359.38;2612126;36;20073;-51
2022/09/17 08:57:35;;;;;;;4.07;0.82;;;;;;;15.92;100.00;101359.78;2614268;36;20038;-53
2022/09/17 09:00:08;;;;;;;4.30;0.90;;;;;;;16.33;100.00;101361.03;2615169;36;20034;-54
2022/09/17 09:02:54;;;;;;;2.15;0.63;;;;;;;15.95;100.00;101372.19;2616881;31;20026;-51
2022/09/17 09:05:29;;;;;;;3.92;0.70;;;;;;;15.59;100.00;101393.91;2613792;36;20027;-50
2022/09/17 09:08:04;;;;;;;4.25;0.85;;;;;;;14.81;100.00;101402.56;2614725;36;20030;-50
2022/09/17 09:10:40;;;;;;;1.83;0.60;;;;;;;14.39;100.00;101403.03;2612040;36;20042;-54
2022/09/17 09:13:13;;;;;;;2.70;0.68;;;;;;;14.18;100.00;101399.50;2615277;36;20034;-50
2022/09/17 09:15:45;;;;;;;5.90;0.68;;;;;;;13.71;100.00;101393.19;2615254;36;20034;-49
2022/09/17 09:18:20;;;;;;;1.85;0.50;;;;;;;13.26;100.00;101394.56;2615528;36;20057;-49
2022/09/17 09:20:54;;;;;;;3.53;0.55;;;;;;;13.74;100.00;101401.03;2615047;36;20558;-51
2022/09/17 09:23:34;;;;;;;3.53;1.10;;;;;;;14.15;100.00;101394.41;2614430;31;20031;-51
2022/09/17 09:26:16;;;;;;;2.58;0.60;;;;;;;14.66;100.00;101385.97;2615343;36;20041;-53
2022/09/17 09:29:06;;;;;;;1.33;0.30;;;;;;;14.86;100.00;101379.44;2615901;36;20023;-47
2022/09/17 09:31:56;;;;;;;2.38;0.80;;;;;;;15.17;100.00;101386.41;2615071;36;20145;-53
2022/09/17 09:34:25;;;;;;;2.03;0.70;;;;;;;15.29;100.00;101379.72;2614165;36;20038;-52
2022/09/17 09:36:56;;;;;;;3.78;0.70;;;;;;;15.57;100.00;101382.38;2615767;36;20034;-50
2022/09/17 09:39:28;;;;;;;6.82;1.02;;;;;;;15.46;100.00;101383.47;2614267;31;20050;-50
2022/09/17 09:42:02;;;;;;;2.65;0.80;;;;;;;15.97;100.00;101389.16;2613971;31;20038;-50
2022/09/17 09:44:33;;;;;;;2.53;0.82;;;;;;;16.30;100.00;101378.53;2614816;36;20034;-50
2022/09/17 09:47:16;;;;;;;7.15;1.17;;;;;;;16.17;100.00;101394.41;2615736;31;20050;-53
2022/09/17 09:49:57;;;;;;;1.80;0.88;;;;;;;15.51;100.00;101410.97;2615452;36;20563;-47
2022/09/17 09:52:43;;;;;;;3.03;0.73;;;;;;;14.49;100.00;101425.50;2613183;36;20058;-50
2022/09/17 09:55:29;;;;;;;1.15;0.50;;;;;;;14.21;100.00;101436.28;2606629;31;20080;-48
2022/09/17 09:58:06;;;;;;;3.42;0.80;;;;;;;13.81;100.00;101448.16;2616067;36;20548;-48
2022/09/17 10:00:39;;;;;;;6.03;1.27;;;;;;;13.24;100.00;101442.50;2614069;31;20037;-47
2022/09/17 10:03:24;;;;;;;1.08;0.47;;;;;;;13.21;100.00;101430.13;2613879;36;20435;-47
2022/09/17 10:05:59;;;;;;;4.38;0.70;;;;;;;13.11;100.00;101430.09;2614887;36;20042;-50
2022/09/17 10:08:29;;;;;;;2.30;0.50;;;;;;;13.11;100.00;101423.84;2615722;36;20118;-46
2022/09/17 10:11:00;;;;;;;1.63;0.47;;;;;;;13.13;100.00;101424.56;2614730;36;20026;-49
2022/09/17 10:13:30;;;;;;;2.15;0.60;;;;;;;13.23;100.00;101428.13;2615568;36;20034;-47
2022/09/17 10:16:18;;;;;;;2.72;0.57;;;;;;;13.77;100.00;101417.81;2614960;36;20650;-46
2022/09/17 10:18:47;;;;;;;3.58;0.70;;;;;;;14.24;100.00;101417.03;2614416;36;20412;-46
2022/09/17 10:21:21;;;;;;;;;;;;;;;14.62;100.00;101407.09;2615441;36;20034;-49
2022/09/17 10:23:49;;;;;;;4.05;0.82;;;;;;;14.86;100.00;101400.28;2614736;36;19952;-49
2022/09/17 10:26:26;;;;;;;2.72;0.98;;;;;;;15.17;100.00;101402.66;2616005;36;20039;-47
2022/09/17 10:28:57;;;;;;;3.83;0.75;;;;;;;14.92;100.00;101396.97;2615618;36;20077;-48
2022/09/17 10:31:28;;;;;;;3.85;1.30;;;;;;;15.13;100.00;101390.41;2615292;36;20027;-48
2022/09/17 10:33:59;;;;;;;2.97;0.80;;;;;;;15.17;100.00;101373.69;2614691;36;20034;-50
2022/09/17 10:36:39;;;;;;;1.70;0.43;;;;;;;15.18;100.00;101364.53;2610650;36;20038;-46
2022/09/17 10:39:30;;;;;;;6.90;0.95;;;;;;;15.37;100.00;101366.25;2611829;36;20408;-46
2022/09/17 10:42:00;;;;;;;1.52;0.65;;;;;;;15.75;100.00;101364.22;2614415;36;20031;-50
2022/09/17 10:44:30;;;;;;;1.70;0.65;;;;;;;15.87;100.00;101366.69;2611008;36;20077;-46
2022/09/17 10:47:09;;;;;;;2.50;0.70;;;;;;;16.06;100.00;101358.34;2613922;36;20038;-50
2022/09/17 10:49:48;;;;;;;1.77;0.60;;;;;;;16.16;100.00;101360.09;2612815;31;20054;-49
2022/09/17 10:52:27;;;;;;;2.83;0.70;;;;;;;16.20;100.00;101361.47;2629397;31;20034;-49
2022/09/17 10:55:11;;;;;;;4.10;0.93;;;;;;;16.21;100.00;101352.31;2613875;31;20041;-49
2022/09/17 10:57:54;;;;;;;4.97;1.13;;;;;;;16.34;100.00;101352.75;2611955;31;20038;-51
2022/09/17 11:00:24;;;;;;;4.68;1.38;;;;;;;16.45;100.00;101349.72;2614409;36;20034;-49
2022/09/17 11:03:25;;;;;;;6.13;1.10;;;;;;;16.57;100.00;101336.69;2613459;36;20078;-48
2022/09/17 11:06:21;;;;;;;5.28;1.33;;;;;;;16.78;100.00;101325.41;2611975;36;20034;-47
2022/09/17 11:09:01;;;;;;;2.78;0.93;;;;;;;17.08;100.00;101325.81;2613239;36;20065;-49
2022/09/17 11:11:40;;;;;;;4.13;0.98;;;;;;;17.39;100.00;101330.63;2603731;36;20116;-49
2022/09/17 11:14:20;;;;;;;3.70;1.67;;;;;;;16.86;100.00;101353.59;2613790;36;20038;-48
2022/09/17 11:16:57;;;;;;;7.63;1.40;;;;;;;15.67;100.00;101356.00;2613346;36;20081;-49
2022/09/17 11:19:33;;;;;;;6.07;1.50;;;;;;;14.71;100.00;101353.88;2612839;36;20049;-48
2022/09/17 11:22:13;;;;;;;10.10;1.80;;;;;;;14.12;100.00;101369.44;2615842;36;20539;-57
2022/09/17 11:24:57;;;;;;;10.32;1.13;;;;;;;14.13;100.00;101349.50;2614751;36;20511;-51
2022/09/17 11:27:46;;;;;;;7.32;1.30;;;;;;;13.92;100.00;101364.09;2614254;36;20102;-50
2022/09/17 11:30:19;;;;;;;8.70;1.50;;;;;;;14.41;100.00;101369.34;2611529;36;20041;-50
2022/09/17 11:33:06;;;;;;;4.72;1.10;;;;;;;14.49;100.00;101374.91;2612632;31;20678;-47
2022/09/17 11:35:38;;;;;;;6.07;1.52;;;;;;;14.62;100.00;101377.31;2611070;36;20031;-48
2022/09/17 11:38:17;;;;;;;7.88;1.30;;;;;;;14.41;100.00;101396.44;2612164;31;20041;-49
2022/09/17 11:40:48;;;;;;;;;;;;;;;14.63;100.00;101378.97;2611901;36;20406;-51
2022/09/17 11:43:23;;;;;;;1.63;0.73;;;;;;;14.44;100.00;101384.47;2611542;36;20236;-53
2022/09/17 11:46:00;;;;;;;2.47;0.57;;;;;;;14.63;100.00;101378.97;2611173;36;20034;-49